• Join FlightAware (Why Join?)
  • Login
  • US Flag 
12:00AM EDT


 

Airport Tracker/Info


-or-


 

Live Flight TrackerFlight Track Log ✈ EJA605 ✈ 01-Nov-2013 ✈ KSBN - KADS

Flight Track Log - Related Links

Times and Time Zones

All times are in EDT time to prevent confusion due to time zone crossing. See the EJA605 flight status page for this flight to view local times or setup timezone preferences in your user account.

Time Position Orientation Groundspeed Altitude Reporting Facility
EDT Latitude Longitude Course Direction KTS MPH feet Rate Location/Type
08:32AM 41.5614 -86.3925 170° South 266 306 5,400  Level Chicago Center
08:33AM 41.4719 -86.3653 167° South 272 313 8,400 1,920 Climbing Chicago Center
08:34AM 41.3944 -86.3442 168° South 280 322 9,400 1,200 Climbing Chicago Center
08:35AM 41.3128 -86.3225 169° South 290 334 11,000 1,980 Climbing Chicago Center
08:36AM 41.2247 -86.3339 186° South 313 360 13,500 2,400 Climbing Chicago Center
08:37AM 41.6404 -86.4148 227° Southwest  Level Estimated
08:37AM 41.1422 -86.3533 190° South 307 353 16,000  Level Chicago Center
08:39AM 41.0456 -86.3947 198° South 310 357 18,500 1,920 Climbing Chicago Center
08:40AM 40.9878 -86.4761 227° Southwest 300 345 20,000 1,380 Climbing Chicago Center
08:41AM 40.9264 -86.5608 226° Southwest 315 362 21,400 1,320 Climbing Chicago Center
08:42AM 40.8644 -86.6461 226° Southwest 320 368 22,800 1,380 Climbing Chicago Center
08:43AM 40.8031 -86.7325 227° Southwest 323 372 24,300 1,440 Climbing Chicago Center
08:44AM 40.7397 -86.8422 233° Southwest 330 380 25,800 900 Climbing Chicago Center
08:45AM 40.7044 -86.9500 247° West 331 381 26,200 900 Climbing Chicago Center
08:46AM 40.6683 -87.0614 247° West 333 383 27,700 1,500 Climbing Chicago Center
08:47AM 40.6331 -87.1736 248° West 324 373 29,300 1,140 Climbing Chicago Center
08:48AM 40.5847 -87.2672 236° Southwest 319 367 30,100 960 Climbing Chicago Center
08:49AM 40.5256 -87.3594 230° Southwest 326 375 31,400 1,380 Climbing Chicago Center
08:50AM 40.4533 -87.4669 229° Southwest 327 376 33,000 1,320 Climbing Chicago Center
08:51AM 40.3953 -87.5544 229° Southwest 320 368 34,200 960 Climbing Chicago Center
08:52AM 40.3367 -87.6422 229° Southwest 321 369 35,000 780 Climbing Chicago Center
08:53AM 40.2786 -87.7294 229° Southwest 319 367 35,900 720 Climbing Chicago Center
08:54AM 40.2194 -87.8169 228° Southwest 321 369 36,600 540 Climbing Chicago Center
08:55AM 40.1519 -87.9175 229° Southwest 325 374 37,100 480 Climbing Chicago Center
08:56AM 40.0914 -88.0078 229° Southwest 329 379 37,600 420 Climbing Chicago Center
08:57AM 40.0303 -88.0969 228° Southwest 331 381 38,000 180 Climbing Chicago Center
08:58AM 39.9611 -88.1981 228° Southwest 341 392 38,000  Level Chicago Center
08:59AM 39.8936 -88.2942 228° Southwest 352 405 38,000  Level Chicago Center
09:00AM 39.8417 -88.3692 228° Southwest 347 399 38,000  Level Kansas City Center
09:01AM 39.7736 -88.4692 228° Southwest 354 407 38,000  Level Kansas City Center
09:02AM 39.7022 -88.5714 228° Southwest 365 420 38,000  Level Kansas City Center
09:03AM 39.6333 -88.6717 228° Southwest 371 427 38,000  Level Kansas City Center
09:04AM 39.5642 -88.7711 228° Southwest 371 427 38,000  Level Kansas City Center
09:05AM 39.4950 -88.8694 228° Southwest 370 426 38,000  Level Kansas City Center
09:06AM 39.4261 -88.9692 228° Southwest 370 426 38,000  Level Kansas City Center
09:07AM 39.3508 -89.0778 228° Southwest 371 427 38,000  Level Kansas City Center
09:08AM 39.2817 -89.1750 227° Southwest 371 427 38,000  Level Kansas City Center
09:09AM 39.2122 -89.2750 228° Southwest 372 428 38,000  Level Kansas City Center
09:10AM 39.1292 -89.3933 228° Southwest 371 427 38,000  Level Kansas City Center
09:11AM 39.0600 -89.4900 227° Southwest 369 425 38,000  Level Kansas City Center
09:12AM 38.9908 -89.5881 228° Southwest 370 426 38,000  Level Kansas City Center
09:13AM 38.9158 -89.6931 227° Southwest 371 427 38,000  Level Kansas City Center
09:14AM 38.8500 -89.7819 226° Southwest 372 428 38,000  Level Kansas City Center
09:15AM 38.7808 -89.8792 228° Southwest 369 425 38,000  Level Kansas City Center
09:16AM 38.7111 -89.9753 227° Southwest 368 423 38,000  Level Kansas City Center
09:17AM 38.6411 -90.0711 227° Southwest 366 421 38,000  Level Kansas City Center
09:18AM 38.5703 -90.1692 227° Southwest 369 425 38,000  Level Kansas City Center
09:19AM 38.4989 -90.2664 227° Southwest 370 426 38,000  Level Kansas City Center
09:20AM 38.4200 -90.3747 227° Southwest 370 426 38,000 240 Level Kansas City Center
09:22AM 38.3442 -90.4783 227° Southwest 369 425 38,500 480 Climbing Kansas City Center
09:23AM 38.2775 -90.5700 227° Southwest 358 412 39,100 540 Climbing Kansas City Center
09:24AM 38.2100 -90.6597 226° Southwest 351 404 39,700 420 Climbing Kansas City Center
09:25AM 38.1444 -90.7475 226° Southwest 345 397 40,000 120 Climbing Kansas City Center
09:26AM 38.0775 -90.8383 227° Southwest 349 402 40,000  Level Kansas City Center
09:27AM 38.0081 -90.9325 227° Southwest 361 415 40,000  Level Kansas City Center
09:28AM 37.9372 -91.0275 227° Southwest 368 423 40,000  Level Kansas City Center
09:29AM 37.8550 -91.1369 226° Southwest 372 428 40,000  Level Kansas City Center
09:30AM 37.7822 -91.2344 227° Southwest 375 432 40,000  Level Kansas City Center
09:31AM 37.7097 -91.3328 227° Southwest 378 435 40,000  Level Kansas City Center
09:32AM 37.6350 -91.4286 225° Southwest 379 436 40,000  Level Kansas City Center
09:33AM 37.5633 -91.5258 227° Southwest 377 434 40,000  Level Kansas City Center
09:34AM 37.4917 -91.6214 227° Southwest 374 430 40,000  Level Kansas City Center
09:35AM 37.4028 -91.7358 226° Southwest 375 432 40,000  Level Kansas City Center
09:36AM 37.3294 -91.8325 226° Southwest 376 433 40,000  Level Kansas City Center
09:37AM 37.2553 -91.9289 226° Southwest 378 435 40,000  Level Kansas City Center
09:38AM 37.1797 -92.0281 226° Southwest 385 443 40,000  Level Kansas City Center
09:39AM 37.1050 -92.1250 226° Southwest 384 442 40,000  Level Kansas City Center
09:40AM 37.0306 -92.2194 225° Southwest 381 438 40,000  Level Kansas City Center
09:41AM 36.9558 -92.3169 226° Southwest 382 440 40,000  Level Kansas City Center
09:42AM 36.8819 -92.4122 226° Southwest 380 437 40,000  Level Kansas City Center
09:43AM 36.7911 -92.5269 225° Southwest 382 440 40,000  Level Kansas City Center
09:44AM 36.7167 -92.6192 225° Southwest 379 436 40,000  Level Kansas City Center
09:45AM 36.6411 -92.7150 226° Southwest 380 437 40,000  Level Kansas City Center
09:46AM 36.5642 -92.8125 226° Southwest 388 447 40,000  Level Kansas City Center
09:47AM 36.4878 -92.9117 226° Southwest 394 453 40,000  Level Kansas City Center
09:48AM 36.4119 -93.0058 225° Southwest 392 451 40,000  Level Kansas City Center
09:49AM 36.3356 -93.1011 225° Southwest 391 450 40,000  Level Kansas City Center
09:50AM 36.2414 -93.2203 226° Southwest 401 461 40,000  Level Kansas City Center
09:52AM 36.1481 -93.3411 226° Southwest 397 457 40,000  Level Memphis Center
09:53AM 36.0686 -93.4358 224° Southwest 397 457 40,000  Level Memphis Center
09:54AM 35.9889 -93.5328 225° Southwest 397 457 40,000  Level Memphis Center
09:55AM 35.9094 -93.6247 223° Southwest 397 457 40,000  Level Memphis Center
09:56AM 35.8214 -93.7183 221° Southwest 402 463 40,000  Level Memphis Center
09:57AM 35.7356 -93.8069 220° Southwest 407 468 40,000  Level Memphis Center
09:58AM 35.6517 -93.9006 222° Southwest 412 474 40,000  Level Memphis Center
09:59AM 35.5658 -93.9889 220° Southwest 412 474 40,000  Level Memphis Center
10:00AM 35.4797 -94.0794 221° Southwest 412 474 40,000  Level Memphis Center
10:01AM 35.3936 -94.1672 220° Southwest 412 474 40,000  Level Memphis Center
10:03AM 35.2269 -94.3461 221° Southwest 427 491 40,000  Level Fort Worth Center
10:04AM 35.1417 -94.4381 221° Southwest 427 491 40,000  Level Fort Worth Center
10:05AM 35.0561 -94.5272 220° Southwest 422 486 40,000  Level Fort Worth Center
10:06AM 34.9644 -94.6242 221° Southwest 417 480 40,000  Level Fort Worth Center
10:07AM 34.8767 -94.7131 220° Southwest 417 480 40,000  Level Fort Worth Center
10:08AM 34.8011 -94.7914 220° Southwest 411 473 40,000  Level Fort Worth Center
10:09AM 34.7136 -94.8950 224° Southwest 404 465 40,000 -540 Level Fort Worth Center
10:10AM 34.6406 -94.9981 229° Southwest 399 459 39,000 -1,380 Descending Fort Worth Center
10:11AM 34.5692 -95.0933 228° Southwest 394 453 37,300 -1,440 Descending Fort Worth Center
10:12AM 34.5022 -95.1883 229° Southwest 388 447 36,200 -720 Descending Fort Worth Center
10:13AM 34.4267 -95.2836 226° Southwest 383 441 35,900 -1,020 Descending Fort Worth Center
10:14AM 34.3572 -95.3783 228° Southwest 388 447 34,200 -1,800 Descending Fort Worth Center
10:15AM 34.2858 -95.4781 229° Southwest 393 452 32,300 -2,100 Descending Fort Worth Center
10:16AM 34.2161 -95.5700 227° Southwest 393 452 30,100 -2,280 Descending Fort Worth Center
10:17AM 34.1425 -95.6694 228° Southwest 393 452 27,800 -2,160 Descending Fort Worth Center
10:18AM 34.0769 -95.7611 229° Southwest 393 452 25,800 -2,100 Descending Fort Worth Center
10:19AM 34.0092 -95.8500 227° Southwest 373 429 23,700 -2,220 Descending Fort Worth Center
10:20AM 33.9436 -95.9389 228° Southwest 368 423 21,400 -2,160 Descending Fort Worth Center
10:21AM 33.8797 -96.0250 228° Southwest 362 417 19,400 -1,860 Descending Fort Worth Center
10:22AM 33.8264 -96.0958 228° Southwest 339 390 17,700 -1,860 Descending Fort Worth Center
10:23AM 33.7625 -96.1817 228° Southwest 320 368 15,700 -1,800 Descending Fort Worth Center
10:24AM 33.7131 -96.2472 228° Southwest 313 360 14,100 -1,740 Descending Fort Worth Center
10:25AM 33.6533 -96.3281 228° Southwest 308 354 12,300 -1,740 Descending Fort Worth Center
10:26AM 33.6036 -96.3933 228° Southwest 303 349 10,700 -1,740 Descending Fort Worth Center
10:27AM 33.5478 -96.4689 228° Southwest 289 333 8,900 -1,620 Descending Fort Worth Center
10:28AM 33.5025 -96.5292 228° Southwest 279 321 7,500 -1,440 Descending Fort Worth Center
10:29AM 33.4528 -96.5919 226° Southwest 267 307 6,100 -780 Descending Fort Worth Center
10:30AM 33.4011 -96.6569 226° Southwest 257 296 6,000 -60 Descending Fort Worth Center
10:31AM 33.3931 -96.7342 263° West 241 277 6,000 -540 Level Fort Worth Center
10:32AM 33.3936 -96.8289 270° West 253 291 5,000 -900 Descending Fort Worth Center
10:33AM 33.3772 -96.8961 254° West 251 289 4,200 -540 Descending Fort Worth Center
10:34AM 33.3019 -96.9014 183° South 191 220 4,000 -540 Descending Fort Worth Center
10:35AM 33.2436 -96.8944 174° South 216 249 3,200 -900 Descending Fort Worth Center
10:36AM 33.1892 -96.8897 176° South 205 236 2,300 -660 Descending Fort Worth Center
10:37AM 33.1453 -96.8825 172° South 190 219 2,000 -180 Descending Fort Worth Center
10:38AM 33.0972 -96.8753 173° South 170 196 2,000  Level Fort Worth Center
10:39AM 33.0597 -96.8731 177° South 155 178 2,000 -120 Level Fort Worth Center
10:40AM 33.0242 -96.8608 164° South 134 154 1,800 -480 Descending Fort Worth Center
10:41AM 32.9950 -96.8486 161° South 122 140 1,100 -300 Descending Fort Worth Center
10:42AM 33.0033 -96.8511 346° North 116 133 1,200 60 Climbing Fort Worth Center
10:44AM 32.9667 -96.8333 164° South  Level FlightAware Approximate